Time;durP1;ratioP1;P1;durP2;ratioP2;P2;SDS_P1;SDS_P2;PMS_P1;PMS_P2;Temp;Humidity;BMP_temperature;BMP_pressure;BME280_temperature;BME280_humidity;BME280_pressure;Samples;Min_cycle;Max_cycle;Signal;HPM_P1;HPM_P2
2022/06/19 00:02:10;;;;;;;10.60;4.10;;;;;;;20.24;55.47;99853.96;106431;1271;108815;-65
2022/06/19 00:04:39;;;;;;;6.50;3.60;;;;;;;20.26;55.49;99852.42;106319;1271;106507;-66
2022/06/19 00:07:08;;;;;;;4.50;3.80;;;;;;;20.28;55.65;99851.06;106286;1271;137889;-65
2022/06/19 00:09:37;;;;;;;8.60;4.20;;;;;;;20.29;55.57;99851.66;106456;1271;97793;-64
2022/06/19 00:12:08;;;;;;;7.70;3.90;;;;;;;20.30;55.58;99852.33;106254;1271;138098;-65
2022/06/19 00:14:36;;;;;;;6.40;3.70;;;;;;;20.31;55.41;99855.05;107839;1270;107199;-64
2022/06/19 00:17:07;;;;;;;6.10;3.50;;;;;;;20.30;55.54;99858.83;106288;1271;139567;-65
2022/06/19 00:19:35;;;;;;;6.80;4.10;;;;;;;20.31;55.61;99859.61;107852;1270;96235;-64
2022/06/19 00:22:05;;;;;;;6.50;3.90;;;;;;;20.31;55.63;99860.31;107881;1270;96473;-65
2022/06/19 00:24:34;;;;;;;7.10;3.60;;;;;;;20.32;55.45;99862.55;107783;1270;139400;-66
2022/06/19 00:27:03;;;;;;;4.60;3.90;;;;;;;20.33;55.42;99860.55;107819;1270;108954;-65
2022/06/19 00:29:32;;;;;;;8.20;3.80;;;;;;;20.34;55.56;99859.73;107760;1270;138396;-66
2022/06/19 00:32:04;;;;;;;4.70;3.60;;;;;;;20.36;55.66;99860.14;107869;1270;95852;-67
2022/06/19 00:34:34;;;;;;;5.20;3.60;;;;;;;20.37;55.61;99859.36;107911;1269;96318;-66
2022/06/19 00:37:03;;;;;;;10.40;3.90;;;;;;;20.36;55.59;99861.52;107762;1270;137575;-65
2022/06/19 00:39:32;;;;;;;6.30;4.00;;;;;;;20.37;55.69;99861.98;107893;1270;107881;-65
2022/06/19 00:42:01;;;;;;;8.00;3.80;;;;;;;20.37;55.71;99862.33;107814;1270;139293;-65
2022/06/19 00:44:29;;;;;;;6.20;3.70;;;;;;;20.37;55.74;99858.83;107925;1270;95830;-66
2022/06/19 00:47:07;;;;;;;4.30;3.60;;;;;;;20.35;55.63;99860.16;107773;1270;138910;-65
2022/06/19 00:49:40;;;;;;;6.90;3.60;;;;;;;20.34;55.69;99865.36;107829;1270;112504;-65
2022/06/19 00:52:12;;;;;;;8.40;3.90;;;;;;;20.35;55.73;99873.23;107870;1271;107975;-66
2022/06/19 00:54:45;;;;;;;7.30;3.90;;;;;;;20.36;55.55;99875.52;107798;1270;138078;-66
2022/06/19 00:57:14;;;;;;;7.60;4.00;;;;;;;20.37;55.70;99879.10;107094;1271;98027;-66
2022/06/19 00:59:51;;;;;;;7.60;4.10;;;;;;;20.37;55.61;99877.49;106229;1271;138735;-65
2022/06/19 01:02:20;;;;;;;5.30;3.40;;;;;;;20.37;55.59;99875.02;106362;1270;112132;-66
2022/06/19 01:04:51;;;;;;;7.80;4.10;;;;;;;20.38;55.55;99881.18;106302;1271;109200;-65
2022/06/19 01:07:22;;;;;;;6.90;4.10;;;;;;;20.37;55.79;99880.84;106160;1271;138391;-66
2022/06/19 01:09:51;;;;;;;7.70;4.00;;;;;;;20.37;55.68;99882.45;107841;1269;96113;-66
2022/06/19 01:12:22;;;;;;;5.30;3.80;;;;;;;20.36;55.73;99884.27;107729;1271;138395;-66
2022/06/19 01:14:53;;;;;;;10.30;3.60;;;;;;;20.37;55.81;99887.77;107872;1270;112327;-66
2022/06/19 01:17:22;;;;;;;5.00;3.70;;;;;;;20.37;55.61;99889.02;107801;1271;138997;-67
2022/06/19 01:19:52;;;;;;;6.70;4.10;;;;;;;20.37;55.56;99886.34;107906;1271;108958;-66
2022/06/19 01:22:31;;;;;;;6.90;3.80;;;;;;;20.38;55.67;99891.00;107065;1270;97848;-65
2022/06/19 01:25:03;;;;;;;5.70;4.30;;;;;;;20.39;55.64;99891.98;107719;1271;139013;-65
2022/06/19 01:30:25;;;;;;;6.60;4.10;;;;;;;20.41;55.54;99895.98;106239;1271;138625;-65
2022/06/19 01:32:57;;;;;;;8.20;5.70;;;;;;;20.40;55.69;99892.27;106222;1271;108331;-67
2022/06/19 01:35:29;;;;;;;5.80;5.00;;;;;;;20.40;55.62;99889.98;106065;1271;138803;-66
2022/06/19 01:38:09;;;;;;;10.70;5.60;;;;;;;20.39;55.60;99892.23;106296;1271;97680;-66
2022/06/19 01:40:39;;;;;;;8.30;4.70;;;;;;;20.37;55.67;99894.28;106440;1271;112581;-68
2022/06/19 01:43:09;;;;;;;8.80;5.90;;;;;;;20.34;55.68;99897.55;106347;1271;138540;-67
2022/06/19 01:45:41;;;;;;;8.60;5.20;;;;;;;20.32;55.78;99896.67;107832;1270;108348;-64
2022/06/19 01:48:11;;;;;;;7.80;4.30;;;;;;;20.29;55.90;99892.95;107682;1271;140168;-66
2022/06/19 01:50:40;;;;;;;8.50;4.70;;;;;;;20.27;56.26;99892.63;107872;1270;95951;-66
2022/06/19 01:53:15;;;;;;;8.00;5.10;;;;;;;20.23;56.28;99896.06;107762;1269;138730;-65
2022/06/19 01:55:45;;;;;;;7.00;4.30;;;;;;;20.20;56.42;99895.95;107891;1270;108928;-65
2022/06/19 01:58:14;;;;;;;8.50;4.80;;;;;;;20.18;56.57;99901.42;106488;1271;107874;-65
2022/06/19 02:01:23;;;;;;;6.50;4.50;;;;;;;20.15;56.69;99897.23;106469;1260;138975;31
2022/06/19 02:03:56;;;;;;;7.90;4.70;;;;;;;20.12;56.69;99893.81;105415;1278;97985;-65
2022/06/19 02:06:31;;;;;;;8.30;4.70;;;;;;;20.08;56.93;99892.88;107213;1277;138950;-67
2022/06/19 02:09:01;;;;;;;8.10;5.30;;;;;;;20.06;57.02;99893.38;107354;1277;109099;-67
2022/06/19 02:11:33;;;;;;;9.50;4.90;;;;;;;20.04;57.04;99895.06;107263;1277;138847;-67
2022/06/19 02:14:04;;;;;;;9.70;5.00;;;;;;;20.02;57.11;99893.69;107296;1277;96128;-66
2022/06/19 02:16:37;;;;;;;8.20;4.60;;;;;;;19.99;57.42;99891.64;107262;1277;96074;-66
2022/06/19 02:19:06;;;;;;;5.60;4.50;;;;;;;19.97;57.55;99893.52;107058;1277;138247;-65
2022/06/19 02:21:38;;;;;;;7.20;4.50;;;;;;;19.96;57.40;99887.46;105952;1277;107837;-65
2022/06/19 02:24:09;;;;;;;7.30;4.60;;;;;;;19.94;57.75;99886.23;105843;1277;138587;-65
2022/06/19 02:26:40;;;;;;;7.40;4.90;;;;;;;19.90;57.58;99878.33;106676;1278;97862;-65
2022/06/19 02:29:11;;;;;;;5.60;4.30;;;;;;;19.85;57.93;99881.02;105754;1278;138589;-65
2022/06/19 02:31:45;;;;;;;7.80;4.50;;;;;;;19.78;57.92;99875.94;105905;1278;112622;-65
2022/06/19 02:34:21;;;;;;;6.10;4.30;;;;;;;19.74;58.07;99876.77;105918;1277;108481;-65
2022/06/19 02:36:55;;;;;;;6.60;4.60;;;;;;;19.69;58.36;99874.67;106429;1276;139379;-64
2022/06/19 02:39:34;;;;;;;6.80;4.40;;;;;;;19.65;58.37;99871.80;106007;1276;97981;-66
2022/06/19 02:42:10;;;;;;;8.50;4.10;;;;;;;19.63;58.65;99869.64;105866;1276;139913;-67
2022/06/19 02:44:41;;;;;;;9.90;4.70;;;;;;;19.60;58.76;99872.02;107521;1276;112107;-66
2022/06/19 02:47:10;;;;;;;7.60;4.80;;;;;;;19.57;58.85;99867.30;106852;1276;139157;-65
2022/06/19 02:49:39;;;;;;;6.30;4.80;;;;;;;19.56;59.11;99868.05;106046;1277;107675;-65
2022/06/19 02:52:11;;;;;;;7.40;4.60;;;;;;;19.55;59.06;99863.52;105857;1278;97846;-66
2022/06/19 02:54:39;;;;;;;9.70;4.20;;;;;;;19.55;59.24;99860.73;106054;1277;138745;-65
2022/06/19 02:57:10;;;;;;;8.40;4.60;;;;;;;19.54;59.31;99857.80;106004;1276;112652;-65
2022/06/19 02:59:38;;;;;;;8.00;5.50;;;;;;;19.54;59.22;99853.21;107420;1275;138674;-65
2022/06/19 03:02:07;;;;;;;7.00;4.80;;;;;;;19.54;59.32;99858.50;107481;1276;109125;-65
2022/06/19 03:04:40;;;;;;;10.20;4.50;;;;;;;19.55;59.27;99856.30;106196;1279;97833;-65
2022/06/19 03:07:09;;;;;;;6.50;4.40;;;;;;;19.57;59.31;99851.45;105854;1276;139237;-65
2022/06/19 03:09:38;;;;;;;7.30;4.50;;;;;;;19.58;59.20;99851.16;105990;1276;112388;-67
2022/06/19 03:12:09;;;;;;;9.90;4.40;;;;;;;19.60;59.20;99852.96;105898;1276;138683;-65
2022/06/19 03:14:44;;;;;;;6.80;4.50;;;;;;;19.62;59.12;99851.94;107446;1275;108702;-65
2022/06/19 03:17:14;;;;;;;6.90;4.60;;;;;;;19.65;59.14;99850.34;106263;1275;138770;-64
2022/06/19 03:19:44;;;;;;;8.00;4.40;;;;;;;19.68;59.16;99843.38;106016;1276;97728;-64
2022/06/19 03:22:13;;;;;;;6.00;4.10;;;;;;;19.69;59.07;99842.02;106046;1276;112450;-65
2022/06/19 03:24:41;;;;;;;5.30;4.10;;;;;;;19.70;59.22;99842.35;105893;1276;138661;-65
2022/06/19 03:27:13;;;;;;;6.50;4.60;;;;;;;19.71;59.04;99838.91;105989;1276;108879;-66
2022/06/19 03:29:41;;;;;;;8.50;4.20;;;;;;;19.71;59.16;99837.10;105796;1279;139421;-65
2022/06/19 03:32:12;;;;;;;5.90;4.10;;;;;;;19.73;59.13;99832.52;105937;1278;97756;-65
2022/06/19 03:34:42;;;;;;;8.60;4.60;;;;;;;19.74;59.12;99834.20;105923;1278;113727;-66
2022/06/19 03:37:11;;;;;;;7.60;4.80;;;;;;;19.77;59.15;99833.14;105839;1277;138579;-66
2022/06/19 03:39:41;;;;;;;7.10;4.30;;;;;;;19.81;59.09;99832.66;105916;1279;108535;-66
2022/06/19 03:42:11;;;;;;;5.70;4.20;;;;;;;19.85;59.00;99836.73;107311;1276;138669;-66
2022/06/19 03:44:40;;;;;;;6.90;3.80;;;;;;;19.88;58.95;99835.40;106411;1276;98615;-66
2022/06/19 03:47:10;;;;;;;7.70;5.40;;;;;;;19.94;58.76;99835.70;105825;1277;138650;-66
2022/06/19 03:49:38;;;;;;;10.40;5.60;;;;;;;20.01;58.70;99841.56;106017;1276;108418;-65
2022/06/19 03:52:08;;;;;;;8.80;5.30;;;;;;;20.07;58.78;99840.70;105978;1276;107062;-66
2022/06/19 03:54:36;;;;;;;7.70;5.70;;;;;;;20.14;58.37;99842.11;107350;1276;138657;-66
2022/06/19 03:57:06;;;;;;;12.30;7.30;;;;;;;20.20;58.43;99843.52;106576;1278;97860;-68
2022/06/19 03:59:34;;;;;;;6.00;4.70;;;;;;;20.29;58.33;99842.83;107366;1276;138737;-66
2022/06/19 04:02:04;;;;;;;5.30;4.50;;;;;;;20.36;58.10;99840.85;107476;1276;107945;-66
2022/06/19 04:04:32;;;;;;;5.70;4.50;;;;;;;20.41;57.87;99838.86;107412;1276;107666;-66
2022/06/19 04:07:01;;;;;;;6.10;4.40;;;;;;;20.48;57.82;99841.53;107148;1276;139173;-65
2022/06/19 04:09:30;;;;;;;5.80;4.40;;;;;;;20.50;57.74;99839.23;105944;1276;97932;-65
2022/06/19 04:11:58;;;;;;;5.20;4.20;;;;;;;20.58;57.59;99835.45;105878;1276;138896;-65
2022/06/19 04:14:27;;;;;;;7.00;4.30;;;;;;;20.63;57.38;99832.71;105951;1276;108818;-66
2022/06/19 04:16:56;;;;;;;6.90;4.30;;;;;;;20.66;57.40;99827.21;105931;1276;108954;-65
2022/06/19 04:19:24;;;;;;;4.80;4.20;;;;;;;20.72;57.14;99826.02;105959;1276;97861;-65
2022/06/19 04:21:53;;;;;;;6.60;5.30;;;;;;;20.73;57.31;99824.88;105979;1276;97745;-64
2022/06/19 04:24:22;;;;;;;5.70;4.40;;;;;;;20.72;57.31;99821.42;105875;1276;137798;-65
2022/06/19 04:26:50;;;;;;;7.80;4.50;;;;;;;20.74;57.24;99818.95;106015;1276;109069;-66
2022/06/19 04:29:19;;;;;;;5.30;4.40;;;;;;;20.76;56.99;99813.11;105857;1276;138187;-65
2022/06/19 04:31:48;;;;;;;5.30;4.10;;;;;;;20.78;57.01;99814.17;105920;1276;97919;-66
2022/06/19 04:34:16;;;;;;;6.60;4.10;;;;;;;20.82;57.02;99816.19;106025;1276;98789;-67
2022/06/19 04:36:45;;;;;;;6.90;4.30;;;;;;;20.89;57.01;99816.00;105891;1276;138405;-67
2022/06/19 04:39:13;;;;;;;4.90;4.20;;;;;;;20.93;56.81;99813.64;106034;1275;108163;-66
2022/06/19 04:41:43;;;;;;;7.20;4.50;;;;;;;21.02;56.85;99810.96;106203;1276;138548;-66
2022/06/19 04:44:14;;;;;;;6.70;4.20;;;;;;;21.18;56.76;99812.70;105969;1276;97821;-67
2022/06/19 04:46:44;;;;;;;7.90;4.10;;;;;;;21.29;56.58;99812.66;105963;1276;98347;-66
2022/06/19 04:49:14;;;;;;;8.90;4.20;;;;;;;21.36;56.16;99804.64;105930;1276;138282;-65
2022/06/19 04:51:43;;;;;;;6.40;4.50;;;;;;;21.47;56.06;99801.25;106052;1276;109434;-66
2022/06/19 04:54:12;;;;;;;4.40;4.00;;;;;;;21.59;55.74;99799.89;105862;1276;138431;-66
2022/06/19 04:56:41;;;;;;;4.90;4.10;;;;;;;21.70;55.57;99796.09;106032;1276;98300;-66
2022/06/19 04:59:10;;;;;;;5.80;4.30;;;;;;;21.83;55.29;99799.91;105924;1276;139029;-66
2022/06/19 05:01:40;;;;;;;5.20;4.30;;;;;;;21.97;55.14;99800.48;105991;1276;112014;-66
2022/06/19 05:04:11;;;;;;;7.40;5.20;;;;;;;22.08;54.93;99791.38;107496;1276;107648;-68
2022/06/19 05:06:40;;;;;;;4.80;4.20;;;;;;;22.24;54.94;99785.08;107302;1276;137877;-66
2022/06/19 05:09:09;;;;;;;6.50;4.00;;;;;;;22.45;54.51;99790.82;107384;1276;96037;-67
2022/06/19 05:11:37;;;;;;;7.00;4.20;;;;;;;22.63;54.25;99798.21;107453;1276;137944;-67
2022/06/19 05:14:06;;;;;;;9.20;5.20;;;;;;;22.80;53.83;99795.67;106517;1276;112482;-66
2022/06/19 05:16:34;;;;;;;5.00;4.10;;;;;;;22.95;53.63;99795.23;106042;1276;107493;-65
2022/06/19 05:19:04;;;;;;;5.90;4.00;;;;;;;23.08;53.17;99790.84;107173;1276;138010;-66
2022/06/19 05:21:33;;;;;;;5.50;4.00;;;;;;;23.14;52.91;99786.87;107507;1276;95781;-67
2022/06/19 05:24:01;;;;;;;7.40;4.20;;;;;;;23.28;52.62;99799.23;107333;1276;138225;-66
2022/06/19 05:26:33;;;;;;;7.50;4.30;;;;;;;23.40;52.25;99798.53;106290;1274;112336;-66
2022/06/19 05:29:04;;;;;;;5.90;4.10;;;;;;;23.54;52.11;99789.17;105899;1276;138762;-66
2022/06/19 05:31:34;;;;;;;7.50;4.00;;;;;;;23.78;51.66;99792.67;107350;1276;108699;-67
2022/06/19 05:34:02;;;;;;;6.40;3.90;;;;;;;23.92;51.00;99788.29;106028;1276;97825;-66
2022/06/19 05:36:39;;;;;;;8.50;4.10;;;;;;;24.02;50.69;99783.79;105921;1276;137944;-67
2022/06/19 05:39:10;;;;;;;6.40;3.70;;;;;;;24.16;50.47;99780.28;106013;1276;111857;-66
2022/06/19 05:41:40;;;;;;;6.80;3.70;;;;;;;24.33;50.35;99777.81;105892;1276;138633;-66
2022/06/19 05:44:10;;;;;;;5.50;3.60;;;;;;;24.50;49.99;99773.85;105973;1276;108821;-67
2022/06/19 05:46:39;;;;;;;8.70;3.60;;;;;;;24.71;49.68;99779.58;106024;1276;97869;-67
2022/06/19 05:49:08;;;;;;;7.90;3.60;;;;;;;24.88;49.38;99779.15;106891;1276;137643;-67
2022/06/19 05:51:37;;;;;;;7.90;3.90;;;;;;;25.20;49.20;99774.02;106143;1276;112526;-66
2022/06/19 05:54:05;;;;;;;8.90;3.70;;;;;;;25.53;48.47;99771.90;105856;1276;138439;-65
2022/06/19 05:56:34;;;;;;;6.70;3.40;;;;;;;25.82;47.87;99769.48;106013;1276;110005;-67
2022/06/19 05:59:04;;;;;;;6.00;3.70;;;;;;;26.20;47.37;99765.67;105858;1276;139314;-65
2022/06/19 06:01:33;;;;;;;5.50;3.70;;;;;;;26.77;47.02;99772.52;106669;1276;97964;-66
2022/06/19 06:04:02;;;;;;;4.00;3.30;;;;;;;27.58;45.74;99764.28;107464;1276;112919;-67
2022/06/19 06:06:32;;;;;;;7.30;3.70;;;;;;;28.52;44.00;99757.11;107377;1276;138132;-67
2022/06/19 06:09:00;;;;;;;7.50;3.10;;;;;;;29.54;42.74;99754.60;107466;1276;107896;-68
2022/06/19 06:11:29;;;;;;;6.70;3.40;;;;;;;30.57;41.17;99750.04;107204;1274;138683;-67
2022/06/19 06:13:57;;;;;;;5.80;3.30;;;;;;;31.47;39.60;99746.27;106196;1276;97849;-67
2022/06/19 06:16:26;;;;;;;4.00;3.40;;;;;;;32.38;38.15;99744.34;105983;1276;111498;-66
2022/06/19 06:18:54;;;;;;;6.20;3.30;;;;;;;33.27;36.93;99744.15;105851;1276;138264;-67
2022/06/19 06:21:25;;;;;;;4.40;2.80;;;;;;;33.89;35.76;99741.30;106332;1276;109062;-66
2022/06/19 06:23:55;;;;;;;8.00;3.90;;;;;;;34.60;34.34;99733.23;105770;1279;138058;-68
2022/06/19 06:26:26;;;;;;;7.20;3.00;;;;;;;35.14;33.58;99728.20;107500;1276;96319;-66
2022/06/19 06:28:57;;;;;;;4.30;3.10;;;;;;;35.73;32.51;99731.25;107415;1276;112573;-66
2022/06/19 06:31:26;;;;;;;4.60;3.30;;;;;;;36.20;31.64;99727.48;106604;1276;106529;-66
2022/06/19 06:33:58;;;;;;;4.80;3.00;;;;;;;36.77;30.92;99727.03;105934;1276;109185;-66
2022/06/19 06:36:28;;;;;;;4.80;3.00;;;;;;;37.20;30.20;99726.29;107211;1278;138134;-66
2022/06/19 06:38:57;;;;;;;4.70;2.60;;;;;;;37.46;29.38;99723.49;106431;1276;95728;-67
2022/06/19 06:41:26;;;;;;;3.60;3.10;;;;;;;37.76;28.69;99721.40;105895;1276;137930;-66
2022/06/19 06:43:55;;;;;;;5.70;3.50;;;;;;;38.24;28.53;99724.11;107479;1276;108936;-67
2022/06/19 06:46:26;;;;;;;4.00;2.70;;;;;;;38.66;27.86;99721.61;107504;1276;108713;-66
2022/06/19 06:48:59;;;;;;;5.70;2.70;;;;;;;38.94;27.09;99717.63;107311;1276;138114;-67
2022/06/19 06:51:29;;;;;;;4.00;2.60;;;;;;;39.19;26.72;99715.91;107504;1276;96266;-67
2022/06/19 06:53:58;;;;;;;4.40;2.60;;;;;;;39.50;26.09;99713.84;107368;1276;138381;-67
2022/06/19 06:56:31;;;;;;;7.80;2.60;;;;;;;39.33;25.55;99713.90;107517;1276;109461;-67
2022/06/19 06:59:00;;;;;;;4.30;2.30;;;;;;;39.24;25.14;99715.35;107378;1276;138157;-67
2022/06/19 07:01:32;;;;;;;7.00;2.50;;;;;;;39.14;24.97;99721.73;107439;1276;96080;-66
2022/06/19 07:04:01;;;;;;;4.70;3.10;;;;;;;39.31;25.67;99720.53;107444;1276;95996;-67
2022/06/19 07:06:32;;;;;;;6.40;2.70;;;;;;;39.74;25.31;99730.06;107317;1276;137921;-67
2022/06/19 07:09:01;;;;;;;5.60;2.80;;;;;;;40.06;25.17;99726.08;107411;1278;107867;-67
2022/06/19 07:11:36;;;;;;;4.10;2.40;;;;;;;40.39;24.59;99719.15;107352;1276;138177;-67
2022/06/19 07:14:05;;;;;;;4.60;2.40;;;;;;;40.42;23.76;99714.38;106679;1276;97857;-67
2022/06/19 07:16:33;;;;;;;4.80;2.50;;;;;;;40.32;23.32;99715.84;107432;1276;96201;-67
2022/06/19 07:19:02;;;;;;;3.90;2.20;;;;;;;40.05;23.35;99712.91;106058;1276;137969;-65
2022/06/19 07:21:30;;;;;;;6.70;2.50;;;;;;;39.82;22.98;99717.66;106042;1276;108951;-66
2022/06/19 07:24:00;;;;;;;5.70;2.50;;;;;;;39.24;23.30;99718.85;105929;1276;138387;-66
2022/06/19 07:26:29;;;;;;;8.60;2.60;;;;;;;39.11;23.94;99714.38;106018;1276;97836;-67
2022/06/19 07:28:57;;;;;;;3.60;2.60;;;;;;;39.26;24.11;99716.85;106045;1276;97728;-66
2022/06/19 07:31:35;;;;;;;5.30;2.50;;;;;;;39.36;24.40;99711.93;106054;1276;112671;-66
2022/06/19 07:34:05;;;;;;;4.90;2.40;;;;;;;39.63;23.98;99712.23;105998;1276;108943;-66
2022/06/19 07:36:34;;;;;;;6.00;2.90;;;;;;;39.98;23.43;99705.33;105861;1276;138005;-66
2022/06/19 07:39:03;;;;;;;5.10;2.40;;;;;;;39.77;23.04;99707.89;105980;1276;97926;-66
2022/06/19 07:41:32;;;;;;;3.80;2.30;;;;;;;39.67;23.57;99707.43;107419;1276;139485;-66
2022/06/19 07:44:00;;;;;;;4.00;2.40;;;;;;;39.59;23.11;99707.73;107481;1276;109663;-65
2022/06/19 07:46:29;;;;;;;7.70;2.40;;;;;;;39.28;23.47;99710.77;107420;1276;108214;-66
2022/06/19 07:51:53;;;;;;;3.10;2.30;;;;;;;39.04;23.85;99709.71;105793;1280;98306;-65
2022/06/19 07:54:21;;;;;;;6.20;2.70;;;;;;;39.23;24.19;99707.64;105634;1281;137994;-66
2022/06/19 07:56:50;;;;;;;9.10;2.60;;;;;;;39.32;23.36;99706.41;105783;1281;113193;-66
2022/06/19 07:59:18;;;;;;;7.20;2.50;;;;;;;39.14;23.19;99697.08;105663;1279;138260;-67
2022/06/19 08:01:47;;;;;;;6.20;2.60;;;;;;;39.03;23.18;99692.42;105723;1281;109159;-66
2022/06/19 08:04:35;;;;;;;5.70;2.90;;;;;;;38.86;23.29;99685.15;105725;1281;97882;-66
2022/06/19 08:07:12;;;;;;;5.00;2.40;;;;;;;38.77;23.96;99687.56;105679;1281;138774;-66
2022/06/19 08:09:41;;;;;;;5.60;2.40;;;;;;;38.58;23.63;99692.02;107021;1281;111574;-68
2022/06/19 08:12:11;;;;;;;2.40;2.00;;;;;;;38.16;24.32;99688.98;106797;1281;138264;-68
2022/06/19 08:14:40;;;;;;;6.50;2.60;;;;;;;38.15;23.87;99692.13;105918;1281;108973;-66
2022/06/19 08:17:09;;;;;;;3.80;2.70;;;;;;;37.90;24.18;99682.14;105652;1281;138213;-67
2022/06/19 08:19:38;;;;;;;6.40;2.90;;;;;;;37.82;24.61;99682.30;105719;1281;97859;-67
2022/06/19 08:22:07;;;;;;;6.90;2.80;;;;;;;37.88;23.93;99688.35;106991;1281;112898;-67
2022/06/19 08:24:35;;;;;;;7.00;2.30;;;;;;;37.62;24.36;99687.83;105584;1281;331391;-67
2022/06/19 08:27:05;;;;;;;5.70;2.40;;;;;;;37.41;24.46;99692.86;105733;1280;109298;-66
2022/06/19 08:29:35;;;;;;;8.50;2.70;;;;;;;37.19;24.54;99684.55;107377;1276;138349;-66
2022/06/19 08:32:05;;;;;;;7.70;2.80;;;;;;;36.92;24.62;99685.97;107551;1276;96164;-66
2022/06/19 08:34:33;;;;;;;9.30;2.60;;;;;;;36.48;24.99;99682.42;107502;1276;111379;-67
2022/06/19 08:37:07;;;;;;;5.60;2.60;;;;;;;36.44;25.51;99678.08;106358;1276;137923;-67
2022/06/19 08:39:36;;;;;;;3.80;2.60;;;;;;;36.26;25.48;99683.99;106121;1276;106664;-67
2022/06/19 08:42:23;;;;;;;5.80;2.50;;;;;;;36.29;25.86;99685.00;105849;1279;139192;-67
2022/06/19 08:45:09;;;;;;;5.80;2.60;;;;;;;36.41;25.89;99682.67;107349;1278;96248;-67
2022/06/19 08:47:49;;;;;;;5.30;2.60;;;;;;;36.37;25.78;99677.04;107395;1276;137959;-67
2022/06/19 08:50:27;;;;;;;2.40;2.10;;;;;;;36.34;26.01;99675.54;107542;1276;107152;-67
2022/06/19 08:53:10;;;;;;;5.10;3.10;;;;;;;36.38;25.87;99672.32;107154;1276;108776;-66
2022/06/19 08:55:47;;;;;;;3.60;2.30;;;;;;;36.33;25.81;99670.14;106037;1274;97839;-67
2022/06/19 08:58:34;;;;;;;7.40;2.60;;;;;;;36.33;26.21;99667.58;105993;1276;97927;-67
2022/06/19 09:01:10;;;;;;;5.30;2.70;;;;;;;36.59;26.37;99664.89;106956;1276;139692;-67
2022/06/19 09:06:57;;;;;;;3.70;2.60;;;;;;;36.72;25.90;99670.42;106710;1282;139595;-67
2022/06/19 09:09:44;;;;;;;9.80;2.90;;;;;;;36.89;26.21;99668.94;106684;1282;96204;-67
2022/06/19 09:12:31;;;;;;;6.60;3.30;;;;;;;37.23;25.94;99664.36;106207;1282;138567;-67
2022/06/19 09:15:08;;;;;;;7.10;2.70;;;;;;;37.60;25.57;99661.33;106756;1282;111901;-67
2022/06/19 09:17:49;;;;;;;3.80;1.90;;;;;;;37.57;25.04;99660.08;106607;1281;138430;-67
2022/06/19 09:20:29;;;;;;;4.50;2.50;;;;;;;37.42;24.60;99653.77;106772;1282;108610;-67
2022/06/19 09:23:18;;;;;;;9.50;2.30;;;;;;;37.28;24.94;99656.91;106720;1282;96173;-67
2022/06/19 09:25:52;;;;;;;5.30;2.60;;;;;;;37.21;24.73;99652.64;106815;1282;96242;-67
2022/06/19 09:28:28;;;;;;;9.20;2.90;;;;;;;36.80;24.99;99649.14;106660;1284;112466;-67
2022/06/19 09:31:04;;;;;;;6.90;2.80;;;;;;;36.72;25.23;99649.85;105547;1284;138061;-66
2022/06/19 09:33:42;;;;;;;5.70;2.40;;;;;;;36.81;25.39;99637.69;106869;1281;109101;-66
2022/06/19 09:36:20;;;;;;;8.00;2.50;;;;;;;36.76;25.33;99643.81;105725;1281;138188;-65
2022/06/19 09:38:56;;;;;;;6.20;2.90;;;;;;;36.57;25.22;99642.85;106178;1276;97755;-67
2022/06/19 09:41:31;;;;;;;4.50;2.40;;;;;;;36.25;25.40;99635.96;105934;1276;138635;-67
2022/06/19 09:44:05;;;;;;;6.30;2.50;;;;;;;35.99;25.52;99632.65;105904;1278;108361;-67
2022/06/19 09:46:42;;;;;;;5.90;2.60;;;;;;;35.86;25.71;99631.77;107315;1279;107874;-67
2022/06/19 09:49:17;;;;;;;5.90;2.60;;;;;;;35.81;25.95;99626.74;107352;1276;137886;-67
2022/06/19 09:51:53;;;;;;;6.30;2.30;;;;;;;35.75;25.95;99618.70;107404;1276;95821;-67
2022/06/19 09:54:27;;;;;;;4.90;2.40;;;;;;;35.84;26.25;99619.10;107302;1278;137930;-68
2022/06/19 09:57:02;;;;;;;7.10;2.40;;;;;;;35.97;25.69;99627.62;107334;1279;107684;-67
2022/06/19 09:59:37;;;;;;;6.30;2.80;;;;;;;35.99;25.63;99624.46;106119;1276;138677;-67
2022/06/19 10:02:13;;;;;;;8.40;2.70;;;;;;;35.84;25.73;99620.98;106016;1276;97844;-66
2022/06/19 10:04:47;;;;;;;6.90;2.70;;;;;;;35.86;26.02;99621.16;106014;1276;97836;-66
2022/06/19 10:07:25;;;;;;;8.00;2.60;;;;;;;35.92;25.92;99619.27;105893;1276;137757;-66
2022/06/19 10:09:58;;;;;;;6.80;2.50;;;;;;;35.84;26.10;99617.84;106765;1276;108014;-68
2022/06/19 10:12:36;;;;;;;5.30;2.50;;;;;;;35.84;26.10;99617.55;105836;1276;138714;-67
2022/06/19 10:15:13;;;;;;;6.40;2.20;;;;;;;35.82;26.18;99614.36;106000;1276;97877;-66
2022/06/19 10:17:49;;;;;;;6.60;2.60;;;;;;;35.76;26.20;99611.15;106134;1276;138032;-66
2022/06/19 10:20:20;;;;;;;6.40;2.80;;;;;;;35.88;26.49;99608.95;107501;1276;111833;-67
2022/06/19 10:22:59;;;;;;;5.50;3.10;;;;;;;36.03;26.20;99606.54;106599;1276;107854;-67
2022/06/19 10:25:44;;;;;;;4.50;2.20;;;;;;;36.18;26.47;99599.00;105941;1276;107861;-68
2022/06/19 10:28:26;;;;;;;9.20;2.40;;;;;;;36.20;26.23;99592.75;106032;1276;97881;-67
2022/06/19 10:31:04;;;;;;;7.60;2.60;;;;;;;36.22;26.03;99586.08;106199;1276;137820;-67
2022/06/19 10:33:51;;;;;;;9.20;2.70;;;;;;;36.33;26.24;99590.79;106894;1276;111619;-66
2022/06/19 10:36:28;;;;;;;7.00;2.90;;;;;;;36.42;26.13;99591.66;105973;1276;137972;-67
2022/06/19 10:39:12;;;;;;;5.90;2.10;;;;;;;36.50;25.94;99592.71;107319;1276;108907;-66
2022/06/19 10:42:04;;;;;;;8.30;2.70;;;;;;;36.43;25.19;99584.04;105913;1279;138652;-66
2022/06/19 10:44:58;;;;;;;5.80;2.40;;;;;;;36.32;25.63;99577.45;105989;1276;97961;-68
2022/06/19 10:47:45;;;;;;;6.60;2.50;;;;;;;36.16;25.60;99581.63;105916;1276;138005;-66
2022/06/19 10:50:24;;;;;;;6.10;2.40;;;;;;;35.78;25.72;99574.09;107458;1276;109027;-67
2022/06/19 10:53:01;;;;;;;7.90;2.20;;;;;;;35.20;26.02;99581.48;106483;1276;107400;-66
2022/06/19 10:55:36;;;;;;;6.40;2.50;;;;;;;34.69;26.79;99580.73;107370;1276;96089;-67
2022/06/19 10:58:16;;;;;;;6.80;2.30;;;;;;;34.50;27.29;99578.41;106971;1276;96138;-66
2022/06/19 11:00:50;;;;;;;4.50;2.50;;;;;;;34.43;27.17;99568.17;105811;1278;137779;-67
2022/06/19 11:06:21;;;;;;;8.60;2.30;;;;;;;34.01;27.17;99569.73;105809;1278;138230;-67
2022/06/19 11:08:55;;;;;;;7.90;2.40;;;;;;;33.88;27.23;99551.12;105902;1278;97854;-67
2022/06/19 11:11:25;;;;;;;6.80;2.30;;;;;;;33.90;27.64;99551.85;105920;1278;138518;-67
2022/06/19 11:14:03;;;;;;;11.20;3.10;;;;;;;33.93;27.74;99554.73;106055;1276;112318;-67
2022/06/19 11:16:34;;;;;;;5.40;2.50;;;;;;;33.81;27.74;99552.64;106076;1276;108529;-67
2022/06/19 11:19:03;;;;;;;6.60;2.40;;;;;;;33.74;28.03;99545.77;105894;1276;138199;-66
2022/06/19 11:21:35;;;;;;;7.20;2.50;;;;;;;33.78;27.87;99543.30;107179;1276;96501;-66
2022/06/19 11:24:05;;;;;;;11.50;2.50;;;;;;;33.68;27.09;99548.83;106409;1276;138726;-66
2022/06/19 11:26:41;;;;;;;7.60;2.40;;;;;;;33.55;27.10;99543.57;105929;1277;112725;-66
2022/06/19 11:29:18;;;;;;;10.10;2.60;;;;;;;33.45;27.34;99540.96;105984;1278;138312;-65
2022/06/19 11:32:10;;;;;;;7.90;2.60;;;;;;;33.43;27.45;99532.27;106014;1277;108100;-67
2022/06/19 11:34:47;;;;;;;5.30;2.70;;;;;;;33.44;27.63;99522.62;107305;1277;96339;-67
2022/06/19 11:37:23;;;;;;;7.10;2.40;;;;;;;33.42;28.13;99527.79;107373;1277;137559;-68
2022/06/19 11:40:08;;;;;;;7.20;2.70;;;;;;;33.34;28.22;99513.84;107501;1277;112487;-68
2022/06/19 11:42:45;;;;;;;5.20;2.40;;;;;;;33.38;28.21;99514.15;107189;1279;138974;-67
2022/06/19 11:45:21;;;;;;;;;;;;;;;33.32;28.02;99520.69;107474;1277;109127;-67
2022/06/19 11:48:02;;;;;;;11.20;2.90;;;;;;;33.30;27.82;99517.61;105957;1277;124498;-65
2022/06/19 11:50:45;;;;;;;7.30;2.60;;;;;;;33.30;27.59;99516.83;107462;1277;96396;-67
2022/06/19 11:53:17;;;;;;;9.80;2.70;;;;;;;33.26;27.52;99525.29;107431;1277;139009;-67
2022/06/19 11:55:48;;;;;;;9.80;2.60;;;;;;;33.18;27.50;99514.09;107482;1276;107853;-66